Time;durP1;ratioP1;P1;durP2;ratioP2;P2;SDS_P1;SDS_P2;PMS_P1;PMS_P2;Temp;Humidity;BMP_temperature;BMP_pressure;BME280_temperature;BME280_humidity;BME280_pressure;Samples;Min_cycle;Max_cycle;Signal;HPM_P1;HPM_P2
2023/06/19 00:06:22;;;;;;;;;;;;;;;;;;2;234070519;234070519;-90
2023/06/19 00:15:22;;;;;;;;;;;;;;;;;;2;279080146;279080146;-90
2023/06/19 00:22:53;;;;;;;;;;;;;;;;;;2;234075758;234075758;-90
2023/06/19 00:31:53;;;;;;;;;;;;;;;;;;2;279080763;279080763;-89
2023/06/19 00:39:24;;;;;;;;;;;;;;;;;;2;234065677;234065677;-90
2023/06/19 00:48:09;;;;;;;;;;;;;;;;;;2;278670013;278670013;-90
2023/06/19 00:55:39;;;;;;;;;;;;;;;;;;2;234071853;234071853;-90
2023/06/19 01:03:52;;;;;;;;;;;;;;;;;;2;279082240;279082240;-90
2023/06/19 01:11:23;;;;;;;;;;;;;;;;;;2;234068744;234068744;-90
2023/06/19 01:20:23;;;;;;;;;;;;;;;;;;2;279084236;279084236;-90
2023/06/19 01:27:50;;;;;;;;;;;;;;;;;;2;234069002;234069002;-90
2023/06/19 01:36:50;;;;;;;;;;;;;;;;;;2;279079775;279079775;-91
2023/06/19 01:44:20;;;;;;;;;;;;;;;;;;2;234069229;234069229;-90
2023/06/19 01:53:21;;;;;;;;;;;;;;;;;;2;279081217;279081217;-90
2023/06/19 02:00:51;;;;;;;;;;;;;;;;;;2;234072545;234072545;-89
2023/06/19 02:09:51;;;;;;;;;;;;;;;;;;2;279079843;279079843;-90
2023/06/19 02:17:22;;;;;;;;;;;;;;;;;;2;234072224;234072224;-90
2023/06/19 02:26:22;;;;;;;;;;;;;;;;;;2;279082769;279082769;-90
2023/06/19 02:33:52;;;;;;;;;;;;;;;;;;2;234073027;234073027;-90
2023/06/19 02:42:52;;;;;;;;;;;;;;;;;;2;279084592;279084592;-89
2023/06/19 02:50:23;;;;;;;;;;;;;;;;;;2;234073316;234073316;-91
2023/06/19 02:59:23;;;;;;;;;;;;;;;;;;2;279081396;279081396;-90
2023/06/19 03:06:54;;;;;;;;;;;;;;;;;;2;234073239;234073239;-90
2023/06/19 03:15:54;;;;;;;;;;;;;;;;;;2;279085065;279085065;-90
2023/06/19 03:23:24;;;;;;;;;;;;;;;;;;2;234072108;234072108;-90
2023/06/19 03:32:25;;;;;;;;;;;;;;;;;;2;279081965;279081965;-90
2023/06/19 03:39:55;;;;;;;;;;;;;;;;;;2;234072636;234072636;-90
2023/06/19 03:48:55;;;;;;;;;;;;;;;;;;2;279079342;279079342;-90
2023/06/19 03:56:26;;;;;;;;;;;;;;;;;;2;234069708;234069708;-91
2023/06/19 04:05:26;;;;;;;;;;;;;;;;;;2;279086068;279086068;-91
2023/06/19 04:12:56;;;;;;;;;;;;;;;;;;2;234076174;234076174;-90
2023/06/19 04:21:56;;;;;;;;;;;;;;;;;;2;279086456;279086456;-90
2023/06/19 04:29:31;;;;;;;;;;;;;;;;;;2;234070150;234070150;-90
2023/06/19 04:38:32;;;;;;;;;;;;;;;;;;2;279083341;279083341;-90
2023/06/19 04:46:03;;;;;;;;;;;;;;;;;;2;234071556;234071556;-90
2023/06/19 04:49:08;;;;;;;;;;;;;;;;;;2;184027482;184027482;-90
2023/06/19 04:58:59;;;;;;;;;;;;;;;;;;286029;29;279083249;-90
2023/06/19 05:06:29;;;;;;;;;;;;;;;;;;2;234074527;234074527;-90
2023/06/19 05:15:30;;;;;;;;;;;;;;;;;;2;279088102;279088102;-91
2023/06/19 05:23:00;;;;;;;;;;;;;;;;;;2;234067293;234067293;-91
2023/06/19 05:32:00;;;;;;;;;;;;;;;;;;2;279082683;279082683;-90
2023/06/19 05:39:31;;;;;;;;;;;;;;;;;;2;234069632;234069632;-90
2023/06/19 05:48:31;;;;;;;;;;;;;;;;;;2;279084824;279084824;-90
2023/06/19 05:56:01;;;;;;;;;;;;;;;;;;2;234072273;234072273;-90
2023/06/19 06:05:01;;;;;;;;;;;;;;;;;;2;279089791;279089791;-90
2023/06/19 06:12:32;;;;;;;;;;;;;;;;;;2;234072881;234072881;-90
2023/06/19 06:21:34;;;;;;;;;;;;;;;;;;2;279087085;279087085;-90
2023/06/19 06:29:04;;;;;;;;;;;;;;;;;;2;234067867;234067867;-90
2023/06/19 06:38:05;;;;;;;;;;;;;;;;;;2;279080315;279080315;-90
2023/06/19 06:45:37;;;;;;;;;;;;;;;;;;2;234068635;234068635;-90
2023/06/19 06:54:37;;;;;;;;;;;;;;;;;;2;279080180;279080180;-90
2023/06/19 07:02:08;;;;;;;;;;;;;;;;;;2;234066192;234066192;-90
2023/06/19 07:11:08;;;;;;;;;;;;;;;;;;2;279083856;279083856;-90
2023/06/19 07:18:40;;;;;;;;;;;;;;;;;;2;234073311;234073311;-90
2023/06/19 07:27:47;;;;;;;;;;;;;;;;;;2;279081582;279081582;-96
2023/06/19 07:35:23;;;;;;;;;;;;;;;;;;2;234070270;234070270;-94
2023/06/19 07:44:24;;;;;;;;;;;;;;;;;;2;279107293;279107293;-92
2023/06/19 07:52:02;;;;;;;;;;;;;;;;;;2;234075657;234075657;-94
2023/06/19 08:08:17;;;;;;;;;;;;;;;;;;2;226058976;226058976;-96
2023/06/19 08:17:27;;;;;;;;;;;;;;;;;;2;279089473;279089473;-95
2023/06/19 08:24:57;;;;;;;;;;;;;;;;;;2;234074931;234074931;-94
2023/06/19 08:34:00;;;;;;;;;;;;;;;;;;2;279083165;279083165;-93
2023/06/19 08:41:45;;;;;;;;;;;;;;;;;;2;234069586;234069586;-96
2023/06/19 08:50:46;;;;;;;;;;;;;;;;;;2;279083553;279083553;-94
2023/06/19 08:58:16;;;;;;;;;;;;;;;;;;2;234071789;234071789;-94
2023/06/19 09:07:16;;;;;;;;;;;;;;;;;;2;279082041;279082041;-95
2023/06/19 09:16:45;;;;;;;;;;;;;;;;;;163311;29;227713461;-94
2023/06/19 09:24:15;;;;;;;;;;;;;;;;;;2;234067377;234067377;-94
2023/06/19 09:33:15;;;;;;;;;;;;;;;;;;2;279079961;279079961;-96
2023/06/19 09:40:45;;;;;;;;;;;;;;;;;;2;234067502;234067502;-95
2023/06/19 09:49:46;;;;;;;;;;;;;;;;;;2;279081156;279081156;-96
2023/06/19 09:57:16;;;;;;;;;;;;;;;;;;2;234072482;234072482;-96
2023/06/19 10:06:20;;;;;;;;;;;;;;;;;;2;279080423;279080423;-96
2023/06/19 10:13:50;;;;;;;;;;;;;;;;;;2;234067940;234067940;-94
2023/06/19 10:22:46;;;;;;;;;;;;;;;;;;2;279079787;279079787;-95
2023/06/19 10:30:18;;;;;;;;;;;;;;;;;;2;234073371;234073371;-95
2023/06/19 10:39:18;;;;;;;;;;;;;;;;;;2;279081216;279081216;-94
2023/06/19 10:46:52;;;;;;;;;;;;;;;;;;2;234071051;234071051;-94
2023/06/19 10:55:53;;;;;;;;;;;;;;;;;;2;279080603;279080603;-94
2023/06/19 11:03:23;;;;;;;;;;;;;;;;;;2;234068452;234068452;-91
2023/06/19 11:12:23;;;;;;;;;;;;;;;;;;2;279078518;279078518;-93
2023/06/19 11:19:53;;;;;;;;;;;;;;;;;;2;234070493;234070493;-94
2023/06/19 11:28:54;;;;;;;;;;;;;;;;;;2;279079440;279079440;-91
2023/06/19 11:36:24;;;;;;;;;;;;;;;;;;2;234069175;234069175;-95
2023/06/19 11:45:25;;;;;;;;;;;;;;;;;;2;279082877;279082877;-96
2023/06/19 11:52:57;;;;;;;;;;;;;;;;;;2;234069367;234069367;-96
2023/06/19 12:01:59;;;;;;;;;;;;;;;;;;2;279069309;279069309;-96
2023/06/19 12:09:38;;;;;;;;;;;;;;;;;;2;234063969;234063969;-96
2023/06/19 12:18:42;;;;;;;;;;;;;;;;;;2;279214953;279214953;-96
2023/06/19 12:43:08;;;;;;;;;5.00;5.00;;;;;;;;2;234273926;234273926;-95
2023/06/19 12:52:46;;;;;;;;;10.00;10.00;;;;;;;;2;279067947;279067947;-96
2023/06/19 13:09:47;;;;;;;;;10.00;10.00;;;;;;;;2;279148615;279148615;-95
2023/06/19 15:25:02;;;;;;;;;;;;;;;;;;2;279324805;279324805;-91
2023/06/19 15:32:32;;;;;;;;;5.00;5.00;;;;;;;;2;234078066;234078066;-94
2023/06/19 15:41:33;;;;;;;;;2.00;2.00;;;;;;;;2;279089563;279089563;-90
2023/06/19 15:49:03;;;;;;;;;4.50;4.50;;;;;;;;2;234065426;234065426;-89
2023/06/19 15:58:06;;;;;;;;;5.50;5.50;;;;;;;;2;279087055;279087055;-90
2023/06/19 16:05:36;;;;;;;;;3.00;3.00;;;;;;;;2;234069302;234069302;-89
2023/06/19 16:14:39;;;;;;;;;3.50;3.50;;;;;;;;2;279082189;279082189;-93
2023/06/19 16:22:11;;;;;;;;;5.00;5.00;;;;;;;;2;234072744;234072744;-94
2023/06/19 16:31:11;;;;;;;;;4.00;4.00;;;;;;;;2;279085625;279085625;-90
2023/06/19 16:38:42;;;;;;;;;5.00;5.00;;;;;;;;2;234074445;234074445;-91
2023/06/19 16:47:42;;;;;;;;;4.50;4.50;;;;;;;;2;279082317;279082317;-90
2023/06/19 16:55:15;;;;;;;;;2.00;2.00;;;;;;;;2;234073844;234073844;-91
2023/06/19 17:04:25;;;;;;;;;3.00;3.00;;;;;;;;2;279081697;279081697;-92
2023/06/19 17:11:55;;;;;;;;;8.00;8.00;;;;;;;;2;234076545;234076545;-90
2023/06/19 17:20:58;;;;;;;;;6.00;6.00;;;;;;;;2;279085573;279085573;-89
2023/06/19 17:28:28;;;;;;;;;6.50;6.50;;;;;;;;2;234069237;234069237;-90
2023/06/19 17:37:37;;;;;;;;;3.00;3.00;;;;;;;;2;279082360;279082360;-90
2023/06/19 17:45:10;;;;;;;;;2.50;2.50;;;;;;;;2;234068325;234068325;-89
2023/06/19 17:54:11;;;;;;;;;3.50;3.50;;;;;;;;2;279088454;279088454;-91
2023/06/19 18:01:44;;;;;;;;;6.00;6.00;;;;;;;;2;234079659;234079659;-92
2023/06/19 18:10:51;;;;;;;;;3.00;3.00;;;;;;;;2;279090705;279090705;-93
2023/06/19 18:18:24;;;;;;;;;3.50;3.50;;;;;;;;2;234070712;234070712;-93
2023/06/19 18:27:24;;;;;;;;;4.50;4.50;;;;;;;;2;279079328;279079328;-89
2023/06/19 18:34:58;;;;;;;;;5.50;5.50;;;;;;;;2;234072316;234072316;-96
2023/06/19 18:43:59;;;;;;;;;3.00;3.00;;;;;;;;2;279080972;279080972;-95
2023/06/19 18:51:29;;;;;;;;;9.00;9.00;;;;;;;;2;234069361;234069361;-94
2023/06/19 19:00:30;;;;;;;;;8.50;8.50;;;;;;;;2;279081065;279081065;-92
2023/06/19 19:08:00;;;;;;;;;8.00;8.00;;;;;;;;2;234067286;234067286;-92
2023/06/19 19:17:08;;;;;;;;;4.00;4.00;;;;;;;;2;279085241;279085241;-93
2023/06/19 19:35:34;;;;;;;;;;;;;;;;;;;;;
2023/06/19 19:42:35;;;;;;;;;8.00;8.00;;;;;;;;2;234069564;234069564;-92
2023/06/19 19:51:36;;;;;;;;;7.00;7.00;;;;;;;;2;279082619;279082619;-93
2023/06/19 19:59:11;;;;;;;;;10.50;10.50;;;;;;;;2;234074318;234074318;-92
2023/06/19 20:08:14;;;;;;;;;4.50;4.50;;;;;;;;2;279082074;279082074;-92
2023/06/19 20:15:46;;;;;;;;;6.50;6.50;;;;;;;;2;234069079;234069079;-91
2023/06/19 20:24:47;;;;;;;;;4.00;4.00;;;;;;;;2;279087231;279087231;-93
2023/06/19 20:32:17;;;;;;;;;4.50;4.50;;;;;;;;2;234075967;234075967;-91
2023/06/19 20:41:48;;;;;;;;;5.00;5.00;;;;;;;;2;279082519;279082519;-96
2023/06/19 20:58:42;;;;;;;;;2.00;2.00;;;;;;;;2;279085742;279085742;-96
2023/06/19 21:15:59;;;;;;;;;9.00;9.00;;;;;;;;2;278873932;278873932;-96
2023/06/19 21:23:32;;;;;;;;;3.50;3.50;;;;;;;;2;234072955;234072955;-96
2023/06/19 21:40:53;;;;;;;;;;;;;;;;;;;;;
2023/06/19 21:49:54;;;;;;;;;8.00;8.00;;;;;;;;2;279110837;279110837;-96
2023/06/19 21:57:25;;;;;;;;;6.50;6.50;;;;;;;;2;234071718;234071718;-96
2023/06/19 22:06:28;;;;;;;;;4.50;4.50;;;;;;;;2;279085084;279085084;-96
2023/06/19 22:14:00;;;;;;;;;5.50;5.50;;;;;;;;2;234071297;234071297;-96
2023/06/19 22:23:00;;;;;;;;;5.50;5.50;;;;;;;;2;279085456;279085456;-96
2023/06/19 22:30:31;;;;;;;;;6.00;6.00;;;;;;;;2;233924644;233924644;-95
2023/06/19 22:39:32;;;;;;;;;7.00;7.00;;;;;;;;2;279082959;279082959;-96
2023/06/19 22:47:02;;;;;;;;;4.50;4.50;;;;;;;;2;234073734;234073734;-96
2023/06/19 22:56:03;;;;;;;;;5.00;5.00;;;;;;;;2;279088638;279088638;-96
2023/06/19 23:03:37;;;;;;;;;6.00;6.00;;;;;;;;2;234072669;234072669;-96
2023/06/19 23:12:37;;;;;;;;;5.50;5.50;;;;;;;;2;279084402;279084402;-96
2023/06/19 23:20:14;;;;;;;;;8.50;8.50;;;;;;;;2;233417660;233417660;-96
2023/06/19 23:29:16;;;;;;;;;7.50;7.50;;;;;;;;2;279088870;279088870;-96
2023/06/19 23:36:47;;;;;;;;;8.50;8.50;;;;;;;;2;234072798;234072798;-96
2023/06/19 23:45:47;;;;;;;;;4.00;4.00;;;;;;;;2;279086512;279086512;-96
2023/06/19 23:53:18;;;;;;;;;10.50;10.50;;;;;;;;2;234064932;234064932;-96
